Flight Track Log - Related Links

Times and Time Zones

All times are in EDT time to prevent confusion due to time zone crossing. See the UAL3821 flight status page for this flight to view local times or setup timezone preferences in your user account.

Time Position Orientation Groundspeed Altitude Reporting Facility
EDT Latitude Longitude Course Direction KTS MPH feet Rate Location/Type
Sun 11:02:15 AM 40.7300 -74.1450 316° Northwest 170 196 2,200  Level New York Center
Sun 11:02:47 AM 40.7500 -74.1667 321° Northwest 204 235 3,000 2,163 Climbing New York TRACON
Sun 11:03:41 AM 40.8000 -74.2167 323° Northwest 228 262 5,300 2,632 Climbing New York TRACON
Sun 11:04:41 AM 40.8333 -74.2833 303° West 229 264 8,000 2,400 Climbing New York TRACON
Sun 11:05:00 AM 40.9750 -74.5047 319° Northwest  Level FlightAware Approximate
Sun 11:05:41 AM 40.8833 -74.3333 323° Northwest 234 269 10,100  Level New York TRACON
Sun 11:06:00 AM 41.0464 -74.5929 316° Northwest  Level FlightAware Approximate
Sun 11:06:16 AM 40.9106 -74.3817 307° West 260 299 10,600  Level New York Center
Sun 11:07:00 AM 41.1165 -74.6831 316° Northwest  Level FlightAware Approximate
Sun 11:07:17 AM 40.9625 -74.4558 313° West 302 348 11,800  Level New York Center
Sun 11:08:15 AM 41.0222 -74.5389 314° West 313 360 13,100 1,462 Climbing New York Center
Sun 11:09:16 AM 41.0842 -74.6250 314° West 318 366 14,700 1,475 Climbing New York Center
Sun 11:10:17 AM 41.1439 -74.7108 313° West 318 366 16,100 1,388 Climbing New York Center
Sun 11:11:17 AM 41.1883 -74.8128 300° West 319 367 17,500 864 Climbing New York Center
Sun 11:12:15 AM 41.2231 -74.8922 300° West 319 367 17,800 908 Climbing New York Center
Sun 11:13:16 AM 41.2767 -75.0197 299° West 330 380 19,300 1,426 Climbing New York Center
Sun 11:14:17 AM 41.3169 -75.1161 299° West 330 380 20,700 1,311 Climbing New York Center
Sun 11:15:15 AM 41.3633 -75.2186 301° West 330 380 21,900 1,210 Climbing New York Center
Sun 11:16:16 AM 41.4092 -75.3239 300° West 330 380 23,100 1,250 Climbing New York Center
Sun 11:17:15 AM 41.4528 -75.4322 298° West 336 387 24,400 1,150 Climbing New York Center
Sun 11:18:16 AM 41.4922 -75.5400 296° West 336 387 25,400 1,050 Climbing New York Center
Sun 11:19:15 AM 41.5286 -75.6700 291° West 331 381 26,500 1,059 Climbing New York Center
Sun 11:20:15 AM 41.5578 -75.7694 291° West 331 381 27,500 992 Climbing New York Center
Sun 11:21:16 AM 41.5906 -75.8828 291° West 331 381 28,500 992 Climbing New York Center
Sun 11:22:16 AM 41.6211 -75.9933 290° West 331 381 29,500 1,000 Climbing New York Center
Sun 11:23:16 AM 41.6536 -76.1069 291° West 331 381 30,500 1,008 Climbing New York Center
Sun 11:24:15 AM 41.6858 -76.2206 291° West 331 381 31,500 908 Climbing New York Center
Sun 11:25:15 AM 41.7194 -76.3511 289° West 336 387 32,300 992 Climbing New York Center
Sun 11:26:16 AM 41.7519 -76.4539 293° West 336 387 33,500 1,150 Climbing New York Center
Sun 11:27:15 AM 41.7833 -76.5817 288° West 336 387 34,600 735 Climbing New York Center
Sun 11:29:40 AM 41.8622 -76.8636 291° West 325 374 36,000 410 Climbing Cleveland Center
Sun 11:30:40 AM 41.8994 -76.9869 292° West 343 395 36,000  Level Cleveland Center
Sun 11:31:40 AM 41.9328 -77.1219 288° West 362 417 36,000  Level Cleveland Center
Sun 11:32:40 AM 41.9703 -77.2567 291° West 375 432 36,000  Level Cleveland Center
Sun 11:33:40 AM 42.0053 -77.3892 290° West 380 437 36,000  Level Cleveland Center
Sun 11:34:40 AM 42.0422 -77.5242 290° West 380 437 36,000  Level Cleveland Center
Sun 11:35:40 AM 42.0750 -77.6542 289° West 380 437 36,000  Level Cleveland Center
Sun 11:36:40 AM 42.1094 -77.7842 290° West 380 437 36,000  Level Cleveland Center
Sun 11:37:40 AM 42.1458 -77.9169 290° West 380 437 36,000  Level Cleveland Center
Sun 11:38:40 AM 42.1803 -78.0528 289° West 380 437 36,000  Level Cleveland Center
Sun 11:39:40 AM 42.2142 -78.1833 289° West 380 437 36,000  Level Cleveland Center
Sun 11:40:40 AM 42.2506 -78.3194 290° West 380 437 36,000  Level Cleveland Center
Sun 11:41:40 AM 42.2842 -78.4531 289° West 380 437 36,000  Level Cleveland Center
Sun 11:42:40 AM 42.3200 -78.5867 290° West 380 437 36,000  Level Cleveland Center
Sun 11:43:40 AM 42.3536 -78.7203 289° West 380 437 36,000  Level Cleveland Center
Sun 11:44:40 AM 42.3889 -78.8572 289° West 380 437 36,000  Level Cleveland Center
Sun 11:45:40 AM 42.4200 -78.9942 287° West 380 437 36,000  Level Cleveland Center
Sun 11:46:40 AM 42.4531 -79.1283 289° West 380 437 36,000  Level Cleveland Center
Sun 11:47:40 AM 42.4881 -79.2683 289° West 380 437 36,000  Level Cleveland Center
Sun 11:48:40 AM 42.5000 -79.4089 277° West 380 437 36,000  Level Cleveland Center
Sun 11:49:40 AM 42.5056 -79.5494 273° West 380 437 36,000  Level Cleveland Center
Sun 11:50:40 AM 42.5131 -79.6958 274° West 385 443 36,000  Level Cleveland Center
Sun 11:51:40 AM 42.5225 -79.8394 275° West 385 443 36,000  Level Cleveland Center
Sun 11:52:40 AM 42.5294 -79.9803 274° West 385 443 36,000  Level Cleveland Center
Sun 11:53:40 AM 42.5300 -80.1128 270° West 385 443 36,000  Level Cleveland Center
Sun 11:54:40 AM 42.5369 -80.2592 274° West 380 437 36,000  Level Cleveland Center
Sun 11:55:40 AM 42.5392 -80.4000 271° West 380 437 36,000  Level Cleveland Center
Sun 11:56:40 AM 42.5478 -80.5436 275° West 385 443 36,000  Level Cleveland Center
Sun 11:57:40 AM 42.5519 -80.6875 272° West 385 443 36,000  Level Cleveland Center
Sun 11:58:40 AM 42.5578 -80.8311 273° West 385 443 36,000  Level Cleveland Center
Sun 11:59:40 AM 42.5636 -80.9778 273° West 385 443 36,000  Level Cleveland Center
Sun 12:00:40 PM 42.5694 -81.1331 273° West 385 443 36,000  Level Cleveland Center
Sun 12:01:40 PM 42.5747 -81.2767 273° West 385 443 36,000  Level Cleveland Center
Sun 12:02:40 PM 42.5800 -81.4261 273° West 385 443 36,000  Level Cleveland Center
Sun 12:03:40 PM 42.6019 -81.5675 282° West 392 451 36,000  Level Cleveland Center
Sun 12:04:40 PM 42.6278 -81.7092 284° West 392 451 36,000  Level Cleveland Center
Sun 12:05:40 PM 42.6514 -81.8394 284° West 392 451 36,000  Level Cleveland Center
Sun 12:06:40 PM 42.6767 -81.9839 283° West 392 451 36,000  Level Cleveland Center
Sun 12:07:40 PM 42.7000 -82.1286 282° West 392 451 36,000  Level Cleveland Center
Sun 12:08:40 PM 42.7250 -82.2761 283° West 397 457 36,000  Level Cleveland Center
Sun 12:09:40 PM 42.7497 -82.4211 283° West 397 457 36,000  Level Cleveland Center
Sun 12:10:40 PM 42.7725 -82.5658 282° West 397 457 36,000  Level Cleveland Center
Sun 12:11:40 PM 42.7969 -82.7111 283° West 392 451 36,000  Level Cleveland Center
Sun 12:12:40 PM 42.8214 -82.8533 283° West 392 451 36,000  Level Cleveland Center
Sun 12:13:40 PM 42.8453 -83.0014 282° West 397 457 36,000  Level Cleveland Center
Sun 12:14:40 PM 42.8694 -83.1469 283° West 397 457 36,000  Level Cleveland Center
Sun 12:15:40 PM 42.8931 -83.2925 283° West 392 451 36,000  Level Cleveland Center
Sun 12:16:40 PM 42.9167 -83.4408 282° West 397 457 36,000  Level Cleveland Center
Sun 12:17:40 PM 42.9400 -83.5867 282° West 397 457 36,000  Level Cleveland Center
Sun 12:18:40 PM 42.9633 -83.7325 282° West 397 457 36,000  Level Cleveland Center
Sun 12:19:40 PM 42.9781 -83.8781 278° West 391 450 36,000  Level Cleveland Center
Sun 12:20:40 PM 42.9922 -84.0350 277° West 397 457 36,000  Level Cleveland Center
Sun 12:21:40 PM 43.0064 -84.1833 277° West 402 463 36,000  Level Cleveland Center
Sun 12:22:40 PM 43.0203 -84.3347 277° West 402 463 36,000  Level Cleveland Center
Sun 12:23:17 PM 43.0317 -84.4233 280° West 400 460 36,000  Level Chicago Center
Sun 12:24:19 PM 43.0442 -84.5722 277° West 397 457 36,000  Level Chicago Center
Sun 12:25:21 PM 43.0578 -84.7225 277° West 398 458 36,000  Level Chicago Center
Sun 12:26:23 PM 43.0750 -84.9006 278° West 396 456 36,000 -48 Level Chicago Center
Sun 12:27:25 PM 43.0872 -85.0481 277° West 393 452 35,900 -629 Descending Chicago Center
Sun 12:28:27 PM 43.0994 -85.1969 276° West 393 452 34,700 -1,161 Descending Chicago Center
Sun 12:29:29 PM 43.1122 -85.3442 277° West 392 451 33,500 -1,268 Descending Chicago Center
Sun 12:30:30 PM 43.1219 -85.4922 275° West 392 451 32,100 -1,659 Descending Chicago Center
Sun 12:31:32 PM 43.1261 -85.6375 272° West 388 447 30,100 -2,129 Descending Chicago Center
Sun 12:32:34 PM 43.1303 -85.8167 272° West 394 453 27,700 -2,129 Descending Chicago Center
Sun 12:33:36 PM 43.1333 -85.9675 272° West 403 464 25,700 -1,742 Descending Chicago Center
Sun 12:34:38 PM 43.1372 -86.1172 272° West 406 467 24,100 -823 Descending Chicago Center
Sun 12:35:40 PM 43.1397 -86.2664 271° West 402 463 24,000 -968 Descending Chicago Center
Sun 12:36:42 PM 43.1433 -86.4414 272° West 387 445 22,100 -2,081 Descending Chicago Center
Sun 12:37:44 PM 43.1450 -86.5867 271° West 384 442 19,700 -1,984 Descending Chicago Center
Sun 12:38:46 PM 43.1478 -86.7236 272° West 365 420 18,000 -1,935 Descending Chicago Center
Sun 12:39:48 PM 43.1494 -86.8642 271° West 370 426 15,700 -1,935 Descending Chicago Center
Sun 12:40:50 PM 43.1517 -86.9961 271° West 349 402 14,000 -774 Descending Chicago Center
Sun 12:41:52 PM 43.1486 -87.1506 268° West 340 391 14,100 -823 Climbing Chicago Center
Sun 12:42:54 PM 43.1369 -87.2761 263° West 334 384 12,300 -1,500 Descending Chicago Center
Sun 12:43:56 PM 43.1217 -87.3911 260° West 293 337 11,000 -1,403 Descending Chicago Center
Sun 12:44:58 PM 43.1106 -87.4867 261° West 259 298 9,400 -1,597 Descending Chicago Center
Sun 12:46:00 PM 43.0992 -87.5811 261° West 253 291 7,700 -1,597 Descending Chicago Center
Sun 12:47:02 PM 43.0867 -87.6722 259° West 245 282 6,100 -1,500 Descending Chicago Center
Sun 12:48:04 PM 43.0764 -87.7614 261° West 240 276 4,600 -1,403 Descending Chicago Center
Sun 12:49:06 PM 43.0611 -87.8500 257° West 239 275 3,200 -1,355 Descending Chicago Center

Login

Don't have an account? Register now (free) for customized features, flight alerts, and more!